Time;durP1;ratioP1;P1;durP2;ratioP2;P2;SDS_P1;SDS_P2;PMS_P1;PMS_P2;Temp;Humidity;BMP_temperature;BMP_pressure;BME280_temperature;BME280_humidity;BME280_pressure;Samples;Min_cycle;Max_cycle;Signal;HPM_P1;HPM_P2
2023/11/23 00:01:10;;;;;;;8.90;5.05;;;;;;;9.69;62.78;94161.25;4928527;28;20095;-73
2023/11/23 00:03:35;;;;;;;13.60;7.10;;;;;;;9.57;63.04;94147.72;4929086;28;20028;-75
2023/11/23 00:06:01;;;;;;;16.67;9.15;;;;;;;9.73;63.02;94167.56;4932027;28;20035;-75
2023/11/23 00:08:27;;;;;;;8.73;5.95;;;;;;;9.70;62.98;94168.13;4923448;28;20149;-76
2023/11/23 00:10:52;;;;;;;16.13;9.63;;;;;;;9.71;62.86;94169.72;4932168;28;20035;-75
2023/11/23 00:13:18;;;;;;;41.78;21.35;;;;;;;9.63;63.11;94163.25;4922427;28;20091;-75
2023/11/23 00:15:43;;;;;;;66.55;32.95;;;;;;;9.77;63.46;94179.16;4930621;28;20110;-74
2023/11/23 00:18:08;;;;;;;51.00;27.75;;;;;;;9.68;63.63;94180.94;4932153;28;20032;-74
2023/11/23 00:20:34;;;;;;;46.92;25.52;;;;;;;9.58;63.87;94150.06;4930561;28;20704;-75
2023/11/23 00:22:59;;;;;;;29.48;18.48;;;;;;;9.66;63.54;94164.50;4928623;28;20057;-76
2023/11/23 00:25:27;;;;;;;24.67;14.40;;;;;;;9.72;64.08;94176.59;4925581;28;20067;-76
2023/11/23 00:27:52;;;;;;;26.35;15.95;;;;;;;9.60;63.83;94173.66;4945477;28;20023;-75
2023/11/23 00:30:18;;;;;;;22.00;13.60;;;;;;;9.64;63.93;94190.56;4930835;28;20378;-74
2023/11/23 00:32:43;;;;;;;18.15;12.07;;;;;;;9.60;64.00;94184.28;4927286;28;20050;-75
2023/11/23 00:35:09;;;;;;;14.70;9.90;;;;;;;9.56;64.18;94185.97;4929032;28;20032;-76
2023/11/23 00:37:34;;;;;;;25.65;16.50;;;;;;;9.53;64.13;94173.28;4925461;28;20063;-75
2023/11/23 00:40:00;;;;;;;21.73;13.38;;;;;;;9.59;64.02;94201.28;4926433;28;20027;-76
2023/11/23 00:42:26;;;;;;;19.30;12.32;;;;;;;9.44;64.10;94200.53;4931651;28;20035;-76
2023/11/23 00:44:51;;;;;;;8.93;6.55;;;;;;;9.40;64.75;94198.75;4920153;28;20035;-75
2023/11/23 00:47:19;;;;;;;6.63;4.68;;;;;;;9.41;64.91;94214.41;4928911;28;20334;-75
2023/11/23 00:49:45;;;;;;;7.82;4.22;;;;;;;9.25;64.63;94185.78;4929373;28;20631;-75
2023/11/23 00:52:10;;;;;;;13.52;7.95;;;;;;;9.54;64.61;94217.31;4928902;28;20047;-75
2023/11/23 00:54:39;;;;;;;26.98;16.67;;;;;;;9.58;64.11;94213.03;4928581;28;20059;-75
2023/11/23 00:57:08;;;;;;;7.55;5.20;;;;;;;9.57;64.53;94216.75;4932407;28;20039;-76
2023/11/23 00:59:34;;;;;;;6.15;4.30;;;;;;;9.45;64.31;94196.78;4929508;28;20045;-75
2023/11/23 01:02:03;;;;;;;13.00;6.72;;;;;;;9.56;64.44;94208.00;4932189;28;20571;-75
2023/11/23 01:04:28;;;;;;;12.63;7.45;;;;;;;9.48;64.24;94197.28;4948384;28;20027;-75
2023/11/23 01:06:54;;;;;;;15.82;7.20;;;;;;;9.54;64.24;94196.88;4934706;28;20031;-76
2023/11/23 01:09:20;;;;;;;9.07;5.55;;;;;;;9.58;64.16;94202.41;4948198;28;20038;-75
2023/11/23 01:11:46;;;;;;;11.93;7.60;;;;;;;9.66;63.91;94214.97;4931942;28;20037;-75
2023/11/23 01:14:11;;;;;;;15.85;10.05;;;;;;;9.70;63.86;94211.41;4936724;28;20063;-75
2023/11/23 01:16:37;;;;;;;13.32;8.70;;;;;;;9.57;63.93;94206.13;4937352;28;20402;-76
2023/11/23 01:19:03;;;;;;;13.60;9.65;;;;;;;9.53;64.38;94210.47;4939409;28;20487;-75
2023/11/23 01:21:30;;;;;;;14.25;11.00;;;;;;;9.62;64.48;94219.31;4934838;28;20039;-75
2023/11/23 01:23:56;;;;;;;14.85;10.43;;;;;;;9.56;64.57;94220.47;4946041;28;20295;-76
2023/11/23 01:26:22;;;;;;;31.83;20.35;;;;;;;9.51;64.81;94213.41;4934948;28;20046;-75
2023/11/23 01:28:47;;;;;;;14.18;10.32;;;;;;;9.47;64.39;94196.50;4931987;28;20043;-75
2023/11/23 01:31:13;;;;;;;23.55;15.75;;;;;;;9.61;64.13;94215.06;4933108;28;20114;-74
2023/11/23 01:33:38;;;;;;;12.80;9.43;;;;;;;9.35;64.70;94218.22;4937652;28;20197;-75
2023/11/23 01:36:04;;;;;;;8.90;6.75;;;;;;;9.32;64.99;94221.47;4933314;28;20035;-75
2023/11/23 01:38:30;;;;;;;5.90;4.05;;;;;;;9.11;65.94;94219.44;4930971;28;20081;-75
2023/11/23 01:40:55;;;;;;;4.97;3.63;;;;;;;9.15;65.81;94209.84;4931800;28;20032;-75
2023/11/23 01:43:21;;;;;;;5.63;3.90;;;;;;;9.28;65.40;94209.88;4950640;28;20471;-75
2023/11/23 01:45:46;;;;;;;7.30;4.30;;;;;;;9.45;65.19;94217.25;4949760;28;20878;-75
2023/11/23 01:48:14;;;;;;;5.65;3.80;;;;;;;9.48;64.61;94211.34;4932504;28;20043;-76
2023/11/23 01:50:40;;;;;;;6.38;4.57;;;;;;;9.64;64.17;94225.88;4931804;28;20031;-75
2023/11/23 01:53:07;;;;;;;3.50;3.00;;;;;;;9.56;63.89;94218.63;4936336;28;20121;-75
2023/11/23 01:55:32;;;;;;;4.63;4.22;;;;;;;9.51;64.26;94217.94;4932604;28;20035;-75
2023/11/23 01:58:02;;;;;;;6.22;4.47;;;;;;;9.64;63.94;94233.06;4935152;28;20141;-75
2023/11/23 02:00:29;;;;;;;4.35;3.88;;;;;;;9.59;64.19;94238.47;4930199;28;20483;-77
2023/11/23 02:02:55;;;;;;;4.28;3.78;;;;;;;9.20;64.99;94223.81;4932628;28;20040;-74
2023/11/23 02:05:25;;;;;;;5.30;3.10;;;;;;;9.33;65.14;94231.03;4930151;28;20048;-75
2023/11/23 02:07:50;;;;;;;3.60;3.25;;;;;;;9.28;64.98;94220.50;4931175;28;20050;-75
2023/11/23 02:10:16;;;;;;;5.22;3.50;;;;;;;9.37;65.05;94213.41;4931574;28;20916;-74
2023/11/23 02:12:43;;;;;;;3.58;3.28;;;;;;;9.38;64.97;94224.81;4930677;28;20044;-75
2023/11/23 02:15:10;;;;;;;5.25;3.58;;;;;;;9.53;64.80;94239.66;4931798;28;20601;-75
2023/11/23 02:17:35;;;;;;;5.38;3.75;;;;;;;9.50;64.75;94238.38;4931804;28;20038;-76
2023/11/23 02:20:03;;;;;;;6.68;4.05;;;;;;;9.56;64.84;94236.41;4946286;28;20035;-75
2023/11/23 02:22:28;;;;;;;4.32;3.15;;;;;;;9.53;64.50;94231.72;4935264;28;20039;-75
2023/11/23 02:24:54;;;;;;;5.15;3.45;;;;;;;9.44;64.97;94228.94;4932756;28;20023;-76
2023/11/23 02:27:19;;;;;;;4.32;3.33;;;;;;;9.39;65.21;94235.13;4946579;28;20775;-75
2023/11/23 02:29:45;;;;;;;3.92;2.90;;;;;;;9.49;65.31;94241.34;4932193;28;20039;-76
2023/11/23 02:32:10;;;;;;;4.55;3.67;;;;;;;9.49;64.83;94238.69;4932965;28;20051;-75
2023/11/23 02:34:37;;;;;;;4.55;4.05;;;;;;;9.55;64.71;94238.28;4935832;28;20529;-75
2023/11/23 02:37:03;;;;;;;4.68;4.00;;;;;;;9.51;64.97;94225.91;4933643;28;20070;-74
2023/11/23 02:39:30;;;;;;;5.45;4.32;;;;;;;9.52;64.76;94236.22;4931399;28;20494;-74
2023/11/23 02:41:57;;;;;;;6.20;5.00;;;;;;;9.59;64.79;94239.25;4934058;28;20035;-75
2023/11/23 02:44:24;;;;;;;6.22;5.13;;;;;;;9.65;64.20;94237.28;4931337;28;20122;-76
2023/11/23 02:46:50;;;;;;;6.25;4.85;;;;;;;9.53;64.39;94242.31;4933533;28;20035;-74
2023/11/23 02:49:16;;;;;;;5.43;4.57;;;;;;;9.54;64.77;94239.34;4930306;28;20046;-75
2023/11/23 02:51:41;;;;;;;5.45;4.13;;;;;;;9.47;64.94;94222.25;4933409;28;20123;-75
2023/11/23 02:54:07;;;;;;;6.32;4.65;;;;;;;9.64;64.88;94254.31;4945584;28;20406;-74
2023/11/23 02:56:33;;;;;;;5.93;4.85;;;;;;;9.67;64.61;94254.53;4930890;28;20028;-76
2023/11/23 02:58:59;;;;;;;9.60;5.38;;;;;;;9.60;64.96;94253.31;4932867;28;20562;-75
2023/11/23 03:01:25;;;;;;;4.93;4.43;;;;;;;9.60;65.17;94262.09;4931917;28;20027;-75
2023/11/23 03:03:53;;;;;;;7.15;4.18;;;;;;;9.50;65.25;94259.63;4931812;28;20031;-76
2023/11/23 03:06:19;;;;;;;5.22;3.88;;;;;;;9.59;65.18;94276.44;4933075;28;20043;-76
2023/11/23 03:08:45;;;;;;;5.38;4.35;;;;;;;9.56;65.17;94274.38;4932882;28;20031;-76
2023/11/23 03:11:26;;;;;;;5.72;3.85;;;;;;;9.52;65.07;94289.34;4932325;28;20522;-76
2023/11/23 03:13:52;;;;;;;5.75;3.42;;;;;;;9.48;65.10;94271.63;4933018;28;20047;-76
2023/11/23 03:16:18;;;;;;;5.50;3.55;;;;;;;9.47;64.85;94264.75;4928969;28;20031;-76
2023/11/23 03:18:44;;;;;;;4.70;3.78;;;;;;;9.52;64.59;94277.91;4932530;28;20790;-76
2023/11/23 03:21:10;;;;;;;6.18;4.90;;;;;;;9.45;64.79;94273.78;4933225;28;20172;-76
2023/11/23 03:23:36;;;;;;;6.45;5.78;;;;;;;9.51;65.06;94279.00;4931814;28;20084;-76
2023/11/23 03:26:02;;;;;;;8.35;6.22;;;;;;;9.44;64.67;94260.78;4927323;28;20578;-76
2023/11/23 03:28:28;;;;;;;5.18;4.30;;;;;;;9.56;64.75;94284.22;4930452;28;20502;-76
2023/11/23 03:30:54;;;;;;;5.03;4.30;;;;;;;9.44;64.65;94274.84;4931580;28;20042;-75
2023/11/23 03:33:19;;;;;;;6.20;4.40;;;;;;;9.34;65.43;94285.66;4930763;28;20870;-75
2023/11/23 03:35:45;;;;;;;8.40;4.88;;;;;;;9.27;65.77;94273.88;4931308;28;20046;-75
2023/11/23 03:38:11;;;;;;;6.43;4.80;;;;;;;9.30;65.69;94268.75;4927290;28;20421;-76
2023/11/23 03:40:39;;;;;;;5.78;5.10;;;;;;;9.31;65.77;94288.91;4930931;28;20629;-75
2023/11/23 03:43:05;;;;;;;6.07;4.40;;;;;;;9.26;65.74;94273.06;4931521;28;20023;-76
2023/11/23 03:45:30;;;;;;;6.80;4.45;;;;;;;9.17;65.50;94274.84;4927153;28;20091;-75
2023/11/23 03:47:59;;;;;;;4.18;3.78;;;;;;;9.29;66.07;94291.06;4928051;28;20586;-74
2023/11/23 03:50:25;;;;;;;9.68;5.88;;;;;;;9.23;66.22;94284.28;4930699;28;20069;-75
2023/11/23 03:52:51;;;;;;;14.07;7.28;;;;;;;9.26;66.42;94296.97;4928983;28;20122;-75
2023/11/23 03:55:18;;;;;;;8.85;5.45;;;;;;;9.26;66.18;94291.66;4931910;28;20030;-75
2023/11/23 03:57:45;;;;;;;5.95;4.70;;;;;;;9.33;65.89;94296.59;4931759;28;20081;-75
2023/11/23 04:00:12;;;;;;;6.22;5.10;;;;;;;9.28;65.66;94286.84;4931991;28;20082;-76
2023/11/23 04:02:37;;;;;;;4.82;4.32;;;;;;;9.31;65.46;94291.56;4929435;28;20038;-76
2023/11/23 04:05:03;;;;;;;4.95;3.58;;;;;;;9.40;65.49;94297.75;4931992;28;20062;-76
2023/11/23 04:07:30;;;;;;;4.65;3.67;;;;;;;9.42;65.45;94298.28;4928785;28;20023;-76
2023/11/23 04:09:56;;;;;;;4.05;3.50;;;;;;;9.41;65.32;94293.25;4929814;28;20020;-76
2023/11/23 04:12:21;;;;;;;5.03;3.78;;;;;;;9.29;65.76;94293.72;4929032;28;20071;-75
2023/11/23 04:14:47;;;;;;;4.95;3.63;;;;;;;9.30;66.03;94308.56;4930935;28;20130;-76
2023/11/23 04:17:13;;;;;;;7.20;4.82;;;;;;;9.28;66.01;94300.13;4930773;28;20130;-76
2023/11/23 04:19:38;;;;;;;6.50;3.88;;;;;;;9.34;65.83;94309.56;4936408;28;20396;-75
2023/11/23 04:22:06;;;;;;;4.40;3.70;;;;;;;9.30;65.76;94302.47;4929541;28;20501;-75
2023/11/23 04:24:32;;;;;;;4.53;4.03;;;;;;;9.25;65.83;94300.69;4932719;28;20187;-75
2023/11/23 04:26:57;;;;;;;5.50;3.65;;;;;;;8.77;67.75;94316.06;4931319;28;20472;-76
2023/11/23 04:29:26;;;;;;;3.90;3.15;;;;;;;8.36;70.86;94318.53;4931309;28;20071;-75
2023/11/23 04:31:52;;;;;;;4.22;3.20;;;;;;;8.49;69.47;94315.16;4946617;28;20036;-76
2023/11/23 04:34:17;;;;;;;4.70;3.58;;;;;;;8.16;71.10;94321.44;4928626;28;20038;-76
2023/11/23 04:36:43;;;;;;;4.22;3.30;;;;;;;8.40;70.83;94314.22;4935950;28;20031;-75
2023/11/23 04:39:08;;;;;;;4.22;3.55;;;;;;;8.71;69.42;94313.75;4932445;28;20407;-75
2023/11/23 04:41:33;;;;;;;4.00;3.58;;;;;;;8.71;68.88;94300.50;4935323;28;20043;-76
2023/11/23 04:44:02;;;;;;;5.22;3.00;;;;;;;8.88;68.23;94319.34;4934188;28;20042;-76
2023/11/23 04:46:29;;;;;;;3.90;3.50;;;;;;;8.78;67.89;94298.28;4933722;28;20027;-76
2023/11/23 04:48:54;;;;;;;5.10;3.60;;;;;;;8.90;68.18;94314.53;4933834;28;20030;-75
2023/11/23 04:51:20;;;;;;;4.10;3.70;;;;;;;8.95;68.07;94322.41;4936213;28;20498;-76
2023/11/23 04:53:45;;;;;;;4.70;3.60;;;;;;;8.95;68.20;94311.81;4933875;28;20070;-76
2023/11/23 04:56:12;;;;;;;4.82;3.30;;;;;;;8.97;67.90;94323.69;4933908;28;20418;-75
2023/11/23 04:58:38;;;;;;;4.05;3.63;;;;;;;8.99;67.85;94318.91;4931631;28;20046;-75
2023/11/23 05:01:04;;;;;;;4.95;3.83;;;;;;;9.02;67.98;94320.97;4935173;28;20643;-75
2023/11/23 05:03:30;;;;;;;4.57;3.83;;;;;;;9.09;67.49;94328.56;4931556;28;20627;-76
2023/11/23 05:05:55;;;;;;;4.10;3.70;;;;;;;9.09;67.56;94317.94;4931641;28;20466;-76
2023/11/23 05:08:21;;;;;;;4.20;3.35;;;;;;;8.85;67.53;94301.38;4931819;28;20042;-75
2023/11/23 05:10:47;;;;;;;4.47;3.72;;;;;;;8.98;67.97;94327.13;4933318;28;20970;-76
2023/11/23 05:13:13;;;;;;;5.75;4.20;;;;;;;9.03;67.79;94324.41;4931319;28;20207;-76
2023/11/23 05:15:39;;;;;;;4.82;3.55;;;;;;;9.06;67.73;94326.47;4931111;28;20044;-75
2023/11/23 05:18:05;;;;;;;6.10;4.35;;;;;;;8.87;68.00;94312.44;4930844;28;20898;-75
2023/11/23 05:20:30;;;;;;;5.40;4.90;;;;;;;8.97;68.00;94331.66;4933113;28;20561;-75
2023/11/23 05:22:56;;;;;;;5.25;4.75;;;;;;;8.87;68.09;94320.41;4932558;28;20530;-76
2023/11/23 05:25:21;;;;;;;10.38;7.50;;;;;;;8.69;68.87;94298.16;4950451;28;20035;-76
2023/11/23 05:27:47;;;;;;;10.95;7.30;;;;;;;8.82;69.01;94345.16;4939025;28;20031;-75
2023/11/23 05:30:12;;;;;;;11.55;6.53;;;;;;;8.80;68.99;94336.72;4947236;28;20031;-75
2023/11/23 05:32:38;;;;;;;7.03;5.45;;;;;;;8.75;68.98;94333.34;4945693;28;20046;-75
2023/11/23 05:35:05;;;;;;;8.65;6.60;;;;;;;8.65;69.70;94314.94;4936759;28;20129;-75
2023/11/23 05:37:31;;;;;;;8.25;6.47;;;;;;;8.78;69.44;94319.50;4930055;28;20066;-75
2023/11/23 05:39:56;;;;;;;9.20;6.90;;;;;;;8.75;69.31;94317.44;4934283;28;20362;-75
2023/11/23 05:42:22;;;;;;;12.60;8.52;;;;;;;8.56;70.38;94331.47;4932539;28;20035;-75
2023/11/23 05:44:47;;;;;;;9.80;7.35;;;;;;;8.58;70.09;94326.69;4931055;28;20042;-75
2023/11/23 05:47:13;;;;;;;12.05;8.18;;;;;;;8.81;69.92;94343.56;4932451;28;20075;-76
2023/11/23 05:49:38;;;;;;;8.50;7.00;;;;;;;8.84;69.35;94336.91;4935431;28;20182;-76
2023/11/23 05:52:04;;;;;;;9.80;8.57;;;;;;;8.88;69.09;94346.66;4944052;28;20031;-76
2023/11/23 05:54:30;;;;;;;10.75;8.55;;;;;;;8.97;69.04;94365.34;4942625;28;20035;-77
2023/11/23 05:56:55;;;;;;;9.90;7.10;;;;;;;8.65;69.71;94349.41;4931615;28;20054;-77
2023/11/23 05:59:21;;;;;;;8.77;7.05;;;;;;;8.70;69.95;94365.25;4925674;28;20899;-76
2023/11/23 06:01:46;;;;;;;9.23;6.13;;;;;;;8.80;69.41;94363.22;4931189;28;20043;-76
2023/11/23 06:04:12;;;;;;;9.27;6.50;;;;;;;8.72;69.37;94336.56;4945861;28;20502;-76
2023/11/23 06:06:37;;;;;;;6.72;5.70;;;;;;;8.93;69.08;94364.34;4924802;28;20068;-76
2023/11/23 06:09:04;;;;;;;5.97;5.18;;;;;;;8.67;69.51;94358.63;4944717;28;20074;-77
2023/11/23 06:11:29;;;;;;;7.45;5.85;;;;;;;8.55;70.16;94377.66;4930520;28;20047;-76
2023/11/23 06:13:54;;;;;;;7.60;6.30;;;;;;;8.21;71.77;94374.38;4936891;28;20039;-76
2023/11/23 06:16:20;;;;;;;11.48;6.95;;;;;;;8.43;71.15;94368.50;4945871;28;20032;-77
2023/11/23 06:18:45;;;;;;;9.63;6.45;;;;;;;8.74;70.17;94376.84;4930776;28;20023;-75
2023/11/23 06:21:11;;;;;;;9.75;6.53;;;;;;;8.76;69.60;94377.34;4929637;28;20051;-76
2023/11/23 06:23:37;;;;;;;11.80;6.80;;;;;;;8.54;69.76;94370.75;4931771;28;20099;-76
2023/11/23 06:26:05;;;;;;;16.42;8.35;;;;;;;8.44;70.62;94391.31;4930463;28;20120;-77
2023/11/23 06:28:30;;;;;;;8.10;7.10;;;;;;;8.48;70.39;94393.09;4930376;28;20037;-75
2023/11/23 06:30:56;;;;;;;8.70;6.85;;;;;;;8.58;70.31;94398.28;4931363;28;20032;-76
2023/11/23 06:33:21;;;;;;;7.93;6.97;;;;;;;8.67;70.06;94400.28;4932138;28;20047;-76
2023/11/23 06:35:47;;;;;;;11.73;7.57;;;;;;;8.43;70.28;94371.97;4926674;28;20035;-76
2023/11/23 06:38:12;;;;;;;12.93;8.40;;;;;;;8.64;70.15;94392.91;4927584;28;20059;-75
2023/11/23 06:40:37;;;;;;;12.18;8.18;;;;;;;8.55;70.02;94377.66;4930843;28;20410;-76
2023/11/23 06:43:05;;;;;;;8.77;7.65;;;;;;;8.81;69.64;94379.91;4931894;28;20069;-75
2023/11/23 06:45:30;;;;;;;12.32;8.65;;;;;;;8.88;69.46;94369.75;4931453;28;20058;-76
2023/11/23 06:47:56;;;;;;;13.02;8.75;;;;;;;8.95;69.03;94375.47;4932474;28;20721;-75
2023/11/23 06:50:22;;;;;;;13.75;10.13;;;;;;;8.86;69.32;94366.56;4931147;28;20039;-76
2023/11/23 06:52:48;;;;;;;10.77;9.25;;;;;;;8.66;69.54;94359.69;4929575;28;20043;-76
2023/11/23 06:55:14;;;;;;;15.05;10.65;;;;;;;8.42;70.72;94362.44;4929777;28;20531;-77
2023/11/23 06:57:46;;;;;;;14.52;11.65;;;;;;;8.48;71.01;94352.53;4926885;28;20232;-76
2023/11/23 07:00:24;;;;;;;13.93;10.27;;;;;;;8.54;70.70;94360.16;4927781;28;20054;-76
2023/11/23 07:02:50;;;;;;;13.35;8.73;;;;;;;8.66;71.21;94380.16;4929412;28;20051;-76
2023/11/23 07:05:16;;;;;;;13.68;10.75;;;;;;;8.56;71.06;94363.28;4943140;28;20047;-77
2023/11/23 07:07:43;;;;;;;16.35;11.07;;;;;;;8.56;71.15;94363.28;4931199;28;20118;-77
2023/11/23 07:10:09;;;;;;;15.95;12.65;;;;;;;8.64;70.77;94371.69;4927423;28;20033;-76
2023/11/23 07:12:35;;;;;;;17.95;11.95;;;;;;;8.47;71.80;94370.31;4930804;28;20051;-76
2023/11/23 07:15:00;;;;;;;15.50;12.07;;;;;;;8.47;71.60;94365.00;4931333;28;20111;-76
2023/11/23 07:17:26;;;;;;;18.92;13.38;;;;;;;8.47;71.78;94380.91;4919380;28;20081;-77
2023/11/23 07:19:51;;;;;;;18.10;13.48;;;;;;;8.37;71.88;94353.75;4921482;28;20085;-77
2023/11/23 07:22:17;;;;;;;17.40;12.60;;;;;;;8.65;71.85;94399.78;4922774;28;20024;-75
2023/11/23 07:24:42;;;;;;;20.55;12.90;;;;;;;8.21;73.17;94382.34;4939978;28;20405;-76
2023/11/23 07:27:08;;;;;;;21.02;14.63;;;;;;;8.29;73.00;94408.19;4922703;28;20420;-77
2023/11/23 07:29:34;;;;;;;20.63;13.13;;;;;;;8.33;72.97;94405.75;4922320;28;20891;-77
2023/11/23 07:31:59;;;;;;;17.60;14.07;;;;;;;8.43;72.20;94401.13;4924532;28;20122;-76
2023/11/23 07:34:25;;;;;;;26.23;17.95;;;;;;;8.53;71.21;94394.91;4921269;28;20098;-77
2023/11/23 07:36:51;;;;;;;23.42;15.73;;;;;;;8.56;70.87;94383.72;4923703;28;20075;-76
2023/11/23 07:39:16;;;;;;;21.75;15.73;;;;;;;8.65;70.75;94397.13;4920394;28;20122;-76
2023/11/23 07:41:42;;;;;;;31.33;17.42;;;;;;;8.46;70.63;94379.34;4921626;28;20046;-76
2023/11/23 07:44:08;;;;;;;27.55;17.70;;;;;;;8.63;70.36;94393.97;4919124;28;20475;-76
2023/11/23 07:46:35;;;;;;;34.15;22.38;;;;;;;8.40;70.54;94399.06;4919337;28;20118;-76
2023/11/23 07:49:00;;;;;;;42.47;29.20;;;;;;;8.47;70.94;94412.72;4920338;28;20397;-75
2023/11/23 07:51:26;;;;;;;35.70;23.60;;;;;;;8.52;70.54;94393.31;4923361;28;20031;-76
2023/11/23 07:53:52;;;;;;;30.83;21.35;;;;;;;8.57;70.96;94402.00;4932562;28;20058;-76
2023/11/23 07:56:17;;;;;;;28.13;18.33;;;;;;;8.40;71.12;94374.41;4936286;28;20103;-76
2023/11/23 07:58:45;;;;;;;26.98;17.50;;;;;;;8.62;71.00;94390.53;4921716;28;20039;-75
2023/11/23 08:01:10;;;;;;;38.78;23.45;;;;;;;8.47;71.50;94393.38;4921761;28;20023;-76
2023/11/23 08:03:36;;;;;;;33.28;21.60;;;;;;;8.44;71.45;94381.50;4935745;28;20036;-75
2023/11/23 08:06:02;;;;;;;27.95;17.50;;;;;;;8.22;72.51;94370.63;4922420;28;20514;-76
2023/11/23 08:08:29;;;;;;;27.08;16.20;;;;;;;8.24;72.43;94392.34;4922830;28;20502;-76
2023/11/23 08:10:55;;;;;;;24.48;16.85;;;;;;;8.25;72.91;94382.53;4930044;28;20031;-76
2023/11/23 08:13:20;;;;;;;27.63;18.52;;;;;;;8.47;71.75;94388.06;4922401;28;20032;-76
2023/11/23 08:15:46;;;;;;;27.98;16.75;;;;;;;8.37;71.46;94361.69;4926629;28;20028;-77
2023/11/23 08:18:12;;;;;;;27.35;17.15;;;;;;;8.41;71.97;94391.88;4924684;28;21623;-77
2023/11/23 08:20:37;;;;;;;28.50;18.88;;;;;;;8.28;72.26;94377.47;4925882;28;20059;-76
2023/11/23 08:23:04;;;;;;;27.38;18.02;;;;;;;8.39;72.52;94381.56;4926670;28;20075;-76
2023/11/23 08:25:30;;;;;;;26.77;18.08;;;;;;;8.46;71.77;94375.91;4926220;28;20043;-75
2023/11/23 08:27:55;;;;;;;28.55;19.08;;;;;;;8.56;71.35;94392.44;4925091;28;20023;-76
2023/11/23 08:30:21;;;;;;;27.38;17.83;;;;;;;8.59;71.03;94378.66;4919374;28;20046;-76
2023/11/23 08:32:47;;;;;;;25.52;16.65;;;;;;;8.74;71.02;94395.41;4940110;28;20121;-76
2023/11/23 08:35:12;;;;;;;25.92;17.83;;;;;;;8.78;70.71;94391.09;4924289;28;20123;-77
2023/11/23 08:37:40;;;;;;;17.90;12.18;;;;;;;8.46;70.71;94366.06;4923891;28;20048;-77
2023/11/23 08:40:07;;;;;;;25.90;16.55;;;;;;;8.52;71.38;94399.41;4926827;28;20011;-76
2023/11/23 08:42:35;;;;;;;19.52;14.65;;;;;;;8.54;71.53;94385.88;4919757;28;20495;-77
2023/11/23 08:45:18;;;;;;;22.73;14.52;;;;;;;8.53;71.17;94369.19;4921947;28;20561;-76
2023/11/23 08:47:44;;;;;;;12.95;9.70;;;;;;;8.81;70.76;94393.16;4926417;28;20041;-77
2023/11/23 08:50:10;;;;;;;11.00;8.88;;;;;;;8.74;71.03;94384.81;4925166;28;20038;-76
2023/11/23 08:52:37;;;;;;;8.75;7.47;;;;;;;8.85;70.99;94391.53;4921943;28;20072;-77
2023/11/23 08:55:08;;;;;;;8.43;7.20;;;;;;;8.78;70.70;94396.41;4925129;28;20024;-75
2023/11/23 08:57:35;;;;;;;8.68;7.30;;;;;;;8.76;70.79;94390.59;4923811;28;20070;-76
2023/11/23 09:00:02;;;;;;;10.88;8.15;;;;;;;8.61;71.56;94390.84;4925613;28;20169;-75
2023/11/23 09:02:28;;;;;;;11.75;8.32;;;;;;;8.64;71.25;94382.28;4921361;28;20746;-76
2023/11/23 09:04:53;;;;;;;16.08;10.65;;;;;;;8.69;71.09;94366.31;4926745;28;20039;-76
2023/11/23 09:07:19;;;;;;;18.85;11.90;;;;;;;8.70;70.91;94362.59;4926426;28;20058;-77
2023/11/23 09:09:46;;;;;;;18.00;13.30;;;;;;;8.88;70.64;94381.13;4927767;28;20019;-76
2023/11/23 09:12:12;;;;;;;19.23;13.90;;;;;;;8.79;70.99;94376.78;4925894;28;20088;-76
2023/11/23 09:14:38;;;;;;;22.58;14.15;;;;;;;8.79;71.13;94366.16;4923592;28;20458;-75
2023/11/23 09:17:07;;;;;;;22.60;14.63;;;;;;;8.85;71.04;94370.31;4925663;28;20680;-76
2023/11/23 09:19:32;;;;;;;19.70;12.73;;;;;;;8.72;71.51;94376.34;4921579;28;20632;-77
2023/11/23 09:21:59;;;;;;;20.50;15.52;;;;;;;8.18;73.25;94351.09;4926568;28;20020;-76
2023/11/23 09:24:26;;;;;;;21.80;14.60;;;;;;;8.61;72.94;94359.00;4924376;28;20039;-75
2023/11/23 09:26:52;;;;;;;24.85;15.82;;;;;;;8.77;72.15;94369.09;4923349;28;20315;-77
2023/11/23 09:29:17;;;;;;;18.50;12.02;;;;;;;8.92;71.88;94371.53;4920906;28;20369;-77
2023/11/23 09:31:42;;;;;;;11.20;9.50;;;;;;;8.91;71.49;94358.53;4931207;28;20555;-77
2023/11/23 09:34:08;;;;;;;10.57;8.63;;;;;;;8.99;71.09;94355.25;4922710;28;20035;-75
2023/11/23 09:36:33;;;;;;;15.90;10.57;;;;;;;8.87;71.17;94357.53;4925491;28;20152;-75
2023/11/23 09:39:00;;;;;;;13.38;10.02;;;;;;;8.88;71.24;94353.81;4923733;28;20043;-76
2023/11/23 09:41:34;;;;;;;11.65;9.80;;;;;;;8.87;71.53;94345.06;4917482;28;20040;-75
2023/11/23 09:44:00;;;;;;;13.20;8.88;;;;;;;8.78;71.51;94343.38;4924901;28;20047;-75
2023/11/23 09:46:26;;;;;;;11.45;9.00;;;;;;;8.61;71.65;94343.09;4914966;28;20046;-75
2023/11/23 09:48:54;;;;;;;10.73;9.32;;;;;;;8.66;72.35;94361.59;4921482;28;20307;-74
2023/11/23 09:51:19;;;;;;;10.20;8.82;;;;;;;8.62;72.69;94357.91;4919557;28;20161;-75
2023/11/23 09:53:46;;;;;;;11.90;9.43;;;;;;;8.41;73.04;94347.59;4924583;28;20514;-74
2023/11/23 09:56:14;;;;;;;11.32;9.57;;;;;;;8.47;73.21;94356.25;4922289;28;20406;-75
2023/11/23 09:58:40;;;;;;;15.23;9.88;;;;;;;8.36;73.85;94363.59;4923573;28;20578;-75
2023/11/23 10:01:06;;;;;;;13.52;9.20;;;;;;;8.31;74.01;94321.25;4921953;28;20788;-75
2023/11/23 10:03:33;;;;;;;11.30;9.13;;;;;;;8.71;73.06;94350.88;4923634;28;20679;-75
2023/11/23 10:06:00;;;;;;;9.63;8.48;;;;;;;8.48;72.53;94302.19;4921912;28;20459;-76
2023/11/23 10:08:27;;;;;;;12.85;8.90;;;;;;;8.66;73.45;94340.38;4923238;28;20499;-75
2023/11/23 10:10:53;;;;;;;10.68;9.32;;;;;;;8.68;72.86;94317.78;4924398;28;20641;-74
2023/11/23 10:13:19;;;;;;;11.38;10.18;;;;;;;8.82;72.21;94323.13;4922548;28;20355;-75
2023/11/23 10:15:45;;;;;;;12.80;9.40;;;;;;;8.97;71.62;94330.88;4923845;28;20767;-75
2023/11/23 10:18:11;;;;;;;14.32;10.20;;;;;;;9.01;71.55;94321.25;4921612;28;20060;-75
2023/11/23 10:20:37;;;;;;;10.43;9.13;;;;;;;9.11;71.45;94321.09;4921398;28;20433;-76
2023/11/23 10:23:04;;;;;;;9.48;7.90;;;;;;;9.07;71.29;94311.34;4920486;28;20031;-75
2023/11/23 10:25:35;;;;;;;8.68;7.30;;;;;;;9.16;71.18;94321.03;4923242;28;20232;-76
2023/11/23 10:28:03;;;;;;;10.98;8.85;;;;;;;9.15;70.73;94313.34;4922166;28;20027;-75
2023/11/23 10:30:29;;;;;;;12.80;9.27;;;;;;;9.27;70.52;94317.13;4915871;28;20043;-77
2023/11/23 10:32:59;;;;;;;11.45;8.15;;;;;;;9.16;70.75;94297.13;4923386;28;20046;-77
2023/11/23 10:35:31;;;;;;;11.27;8.23;;;;;;;9.30;70.37;94297.16;4923097;28;20957;-77
2023/11/23 10:37:57;;;;;;;11.10;9.00;;;;;;;9.38;70.44;94299.94;4922082;28;20066;-74
2023/11/23 10:40:28;;;;;;;18.67;10.80;;;;;;;9.37;70.12;94301.03;4922311;28;20553;-77
2023/11/23 10:42:54;;;;;;;19.13;11.35;;;;;;;9.21;70.95;94299.69;4938249;28;20346;-77
2023/11/23 10:45:21;;;;;;;18.33;11.35;;;;;;;9.11;71.36;94294.56;4921964;28;20081;-77
2023/11/23 10:47:52;;;;;;;9.32;8.25;;;;;;;9.03;71.56;94287.25;4921431;28;20046;-76
2023/11/23 10:50:21;;;;;;;11.55;8.48;;;;;;;9.09;71.40;94277.34;4925629;28;20042;-75
2023/11/23 10:52:47;;;;;;;10.57;7.93;;;;;;;8.99;71.24;94247.28;4919238;28;20046;-75
2023/11/23 10:55:13;;;;;;;9.52;7.55;;;;;;;9.12;71.42;94290.06;4922827;28;20398;-77
2023/11/23 10:57:46;;;;;;;10.48;7.80;;;;;;;9.19;71.24;94279.84;4922269;28;20051;-77
2023/11/23 11:00:17;;;;;;;10.10;8.23;;;;;;;9.12;71.69;94266.97;4921250;28;20638;-78
2023/11/23 11:02:45;;;;;;;10.45;7.68;;;;;;;8.95;72.13;94242.84;4935681;28;20032;-78
2023/11/23 11:05:31;;;;;;;13.40;9.65;;;;;;;8.93;72.38;94255.59;4935312;28;20487;-75
2023/11/23 11:08:05;;;;;;;10.85;8.95;;;;;;;8.83;73.54;94245.94;4937477;28;20155;-75
2023/11/23 11:10:48;;;;;;;11.02;8.82;;;;;;;8.83;72.96;94242.50;4919345;28;20293;-76
2023/11/23 11:13:16;;;;;;;8.73;7.70;;;;;;;9.02;72.92;94267.91;4922165;28;20523;-75
2023/11/23 11:15:53;;;;;;;9.90;8.48;;;;;;;9.09;72.46;94262.22;4919712;28;20562;-76
2023/11/23 11:18:26;;;;;;;11.45;8.45;;;;;;;9.11;72.32;94267.22;4922742;28;20317;-77
2023/11/23 11:21:09;;;;;;;10.95;7.20;;;;;;;9.06;72.39;94254.81;4923250;28;20043;-75
2023/11/23 11:23:46;;;;;;;10.02;8.25;;;;;;;9.03;72.41;94247.47;4933738;28;20178;-75
2023/11/23 11:26:27;;;;;;;9.50;7.85;;;;;;;9.15;72.08;94253.09;4923099;28;20645;-75
2023/11/23 11:28:56;;;;;;;9.18;7.93;;;;;;;9.12;72.12;94243.06;4922641;28;20043;-74
2023/11/23 11:31:29;;;;;;;11.98;9.02;;;;;;;9.07;72.45;94235.19;4920677;28;20039;-74